Time;durP1;ratioP1;P1;durP2;ratioP2;P2;SDS_P1;SDS_P2;PMS_P1;PMS_P2;Temp;Humidity;BMP_temperature;BMP_pressure;BME280_temperature;BME280_humidity;BME280_pressure;Samples;Min_cycle;Max_cycle;Signal;HPM_P1;HPM_P2
2021/04/05 00:01:39;;;;;;;;;;;;;;;23.37;36.15;99659.53;4485533;32;34157;-51
2021/04/05 00:04:06;;;;;;;;;;;;;;;23.35;36.14;99662.47;4485421;32;34867;-49
2021/04/05 00:06:32;;;;;;;;;;;;;;;23.35;36.15;99667.91;4497772;31;34016;-48
2021/04/05 00:08:59;;;;;;;;;;;;;;;23.35;36.15;99659.75;4501455;31;33287;-49
2021/04/05 00:11:26;;;;;;;;;;;;;;;23.35;36.19;99664.34;4501568;31;34798;-51
2021/04/05 00:13:53;;;;;;;;;;;;;;;23.34;36.30;99670.88;4501677;31;34096;-48
2021/04/05 00:16:20;;;;;;;;;;;;;;;23.33;36.31;99658.31;4501623;31;33754;-49
2021/04/05 00:18:47;;;;;;;;;;;;;;;23.34;36.32;99658.09;4501417;31;32986;-51
2021/04/05 00:21:15;;;;;;;;;;;;;;;23.35;36.33;99661.62;4501272;31;33865;-47
2021/04/05 00:23:42;;;;;;;;;;;;;;;23.34;36.31;99651.81;4501166;31;34562;-50
2021/04/05 00:26:10;;;;;;;;;;;;;;;23.33;36.33;99644.72;4501104;31;34294;-49
2021/04/05 00:28:37;;;;;;;;;;;;;;;23.33;36.33;99644.72;4501228;31;33140;-49
2021/04/05 00:31:04;;;;;;;;;;;;;;;23.32;36.34;99641.16;4501285;31;34196;-48
2021/04/05 00:33:32;;;;;;;;;;;;;;;23.31;36.33;99631.31;4501085;31;34230;-50
2021/04/05 00:36:06;;;;;;;;;;;;;;;23.31;36.43;99638.66;4501446;31;34984;-49
2021/04/05 00:38:33;;;;;;;;;;;;;;;23.31;36.46;99630.47;4501231;31;33318;-48
2021/04/05 00:41:03;;;;;;;;;;;;;;;23.31;36.48;99627.75;4501013;31;34693;-51
2021/04/05 00:43:30;;;;;;;;;;;;;;;23.30;36.48;99637.81;4501111;31;34531;-48
2021/04/05 00:45:57;;;;;;;;;;;;;;;23.30;36.45;99631.56;4486900;31;33730;-47
2021/04/05 00:48:24;;;;;;;;;;;;;;;23.30;36.46;99626.94;4500759;31;34047;-48
2021/04/05 00:50:54;;;;;;;;;;;;;;;23.28;36.48;99628.25;4501214;31;34181;-52
2021/04/05 00:53:44;;;;;;;;;;;;;;;23.28;36.47;99626.34;4500517;31;34101;-49
2021/04/05 00:56:13;;;;;;;;;;;;;;;23.28;36.48;99622.78;4493395;31;34511;-49
2021/04/05 00:58:48;;;;;;;;;;;;;;;23.27;36.48;99623.84;4500992;31;33266;-48
2021/04/05 01:01:20;;;;;;;;;;;;;;;23.27;36.52;99615.66;4501092;31;34161;-48
2021/04/05 01:03:47;;;;;;;;;;;;;;;23.26;36.55;99614.84;4487321;31;34141;-51
2021/04/05 01:06:35;;;;;;;;;;;;;;;23.27;36.52;99610.22;4490529;31;34018;-49
2021/04/05 01:09:03;;;;;;;;;;;;;;;23.27;36.60;99604.78;4485182;32;33287;-48
2021/04/05 01:11:30;;;;;;;;;;;;;;;23.27;36.75;99607.50;4484992;32;34907;-52
2021/04/05 01:13:57;;;;;;;;;;;;;;;23.25;36.75;99602.28;4485199;32;34188;-46
2021/04/05 01:16:24;;;;;;;;;;;;;;;23.25;36.78;99599.56;4485309;32;35024;-49
2021/04/05 01:18:51;;;;;;;;;;;;;;;23.25;36.72;99602.28;4485013;32;33450;-49
2021/04/05 01:21:18;;;;;;;;;;;;;;;23.25;36.74;99605.03;4485051;32;34084;-48
2021/04/05 01:23:45;;;;;;;;;;;;;;;23.24;36.76;99600.62;4485189;32;34348;-49
2021/04/05 01:26:13;;;;;;;;;;;;;;;23.24;36.79;99605.25;4485261;32;34747;-53
2021/04/05 01:28:40;;;;;;;;;;;;;;;23.24;36.76;99605.25;4485042;32;33983;-48
2021/04/05 01:31:07;;;;;;;;;;;;;;;23.23;36.84;99604.44;4485055;32;33932;-49
2021/04/05 01:33:35;;;;;;;;;;;;;;;23.23;36.77;99595.44;4484185;31;34126;-56
2021/04/05 01:36:06;;;;;;;;;;;;;;;23.23;36.75;99607.16;4500485;31;34492;-48
2021/04/05 01:38:34;;;;;;;;;;;;;;;23.23;36.69;99595.44;4501007;31;34089;-50
2021/04/05 01:41:06;;;;;;;;;;;;;;;23.22;36.75;99591.03;4500505;31;34006;-48
2021/04/05 01:43:33;;;;;;;;;;;;;;;23.21;36.71;99584.75;4500861;31;34092;-48
2021/04/05 01:46:00;;;;;;;;;;;;;;;23.22;36.86;99585.59;4500713;31;34825;-48
2021/04/05 01:48:27;;;;;;;;;;;;;;;23.20;36.82;99574.13;4500620;31;33322;-51
2021/04/05 01:51:02;;;;;;;;;;;;;;;23.19;36.90;99572.47;4500599;31;33651;-47
2021/04/05 01:53:28;;;;;;;;;;;;;;;23.19;36.89;99578.72;4500675;31;34153;-52
2021/04/05 01:56:05;;;;;;;;;;;;;;;23.19;36.92;99580.63;4491093;31;34911;-47
2021/04/05 01:58:32;;;;;;;;;;;;;;;23.19;36.93;99588.78;4492043;31;31875;-50
2021/04/05 02:01:00;;;;;;;;;;;;;;;23.19;36.91;99588.78;4489355;31;33676;-49
2021/04/05 02:03:28;;;;;;;;;;;;;;;23.17;36.88;99581.69;4478302;31;32778;-52
2021/04/05 02:06:01;;;;;;;;;;;;;;;23.18;36.89;99590.69;4490785;31;33942;-47
2021/04/05 02:08:28;;;;;;;;;;;;;;;23.19;36.96;99583.34;4482919;31;33087;-51
2021/04/05 02:10:56;;;;;;;;;;;;;;;23.17;36.99;99569.94;4490694;31;34140;-50
2021/04/05 02:13:23;;;;;;;;;;;;;;;23.17;36.96;99578.97;4484951;31;33800;-49
2021/04/05 02:15:50;;;;;;;;;;;;;;;23.16;37.00;99571.84;4482755;31;34478;-52
2021/04/05 02:18:17;;;;;;;;;;;;;;;23.18;36.95;99568.91;4487607;31;33967;-53
2021/04/05 02:20:44;;;;;;;;;;;;;;;23.17;36.96;99572.66;4492628;31;33824;-52
2021/04/05 02:23:12;;;;;;;;;;;;;;;23.16;36.95;99562.84;4482663;31;34871;-48
2021/04/05 02:26:05;;;;;;;;;;;;;;;23.16;36.99;99557.41;4483937;31;33879;-51
2021/04/05 02:28:26;;;;;;;;;;;;;;;23.16;36.95;99560.94;4482579;31;33387;-53
2021/04/05 02:30:54;;;;;;;;;;;;;;;23.15;37.19;99559.28;4468102;31;34082;-48
2021/04/05 02:33:21;;;;;;;;;;;;;;;23.14;37.25;99554.09;4469045;31;35034;-47
2021/04/05 02:35:48;;;;;;;;;;;;;;;23.14;37.17;99554.09;4482735;31;34141;-53
2021/04/05 02:38:15;;;;;;;;;;;;;;;23.15;37.19;99551.13;4482752;31;34056;-48
2021/04/05 02:40:42;;;;;;;;;;;;;;;23.14;37.05;99549.47;4469097;31;34052;-54
2021/04/05 02:43:10;;;;;;;;;;;;;;;23.15;37.10;99542.16;4482544;31;34028;-47
2021/04/05 02:45:37;;;;;;;;;;;;;;;23.14;37.08;99526.88;4477045;31;32924;-49
2021/04/05 02:48:04;;;;;;;;;;;;;;;23.14;37.07;99529.59;4490824;31;33760;-52
2021/04/05 02:50:31;;;;;;;;;;;;;;;23.13;37.12;99526.06;4467684;31;34197;-53
2021/04/05 02:52:58;;;;;;;;;;;;;;;23.13;37.15;99527.94;4468965;31;33919;-48
2021/04/05 02:55:25;;;;;;;;;;;;;;;23.12;37.15;99523.53;4476851;31;32941;-47
2021/04/05 02:57:52;;;;;;;;;;;;;;;23.11;37.16;99522.72;4484192;31;33132;-48
2021/04/05 03:00:19;;;;;;;;;;;;;;;23.12;37.13;99526.25;4468604;31;34848;-49
2021/04/05 03:02:47;;;;;;;;;;;;;;;23.11;37.16;99528.16;4490488;31;34887;-49
2021/04/05 03:05:16;;;;;;;;;;;;;;;23.10;37.15;99522.97;4483273;31;34174;-51
2021/04/05 03:07:42;;;;;;;;;;;;;;;23.10;37.17;99525.69;4485484;31;33234;-50
2021/04/05 03:10:09;;;;;;;;;;;;;;;23.11;37.31;99521.87;4482427;31;33706;-48
2021/04/05 03:12:37;;;;;;;;;;;;;;;23.11;37.15;99519.16;4487863;31;36512;-48
2021/04/05 03:15:05;;;;;;;;;;;;;;;23.09;37.32;99519.41;4482211;31;34033;-50
2021/04/05 03:17:32;;;;;;;;;;;;;;;23.10;37.17;99528.41;4483192;31;33404;-53
2021/04/05 03:19:59;;;;;;;;;;;;;;;23.09;37.24;99524.84;4485151;31;35425;-47
2021/04/05 03:22:26;;;;;;;;;;;;;;;23.11;37.39;99517.28;4484213;31;34160;-47
2021/04/05 03:24:53;;;;;;;;;;;;;;;23.10;37.47;99506.63;4478120;31;33759;-48
2021/04/05 03:27:39;;;;;;;;;;;;;;;23.09;37.37;99497.63;4493486;31;34154;-47
2021/04/05 03:30:05;;;;;;;;;;;;;;;23.09;37.39;99496.81;4484280;31;36513;-51
2021/04/05 03:32:33;;;;;;;;;;;;;;;23.08;37.43;99490.53;4491015;31;34977;-51
2021/04/05 03:34:59;;;;;;;;;;;;;;;23.09;37.40;99483.19;4478459;31;34574;-49
2021/04/05 03:37:26;;;;;;;;;;;;;;;23.09;37.35;99475.03;4478308;31;32015;-50
2021/04/05 03:39:53;;;;;;;;;;;;;;;23.08;37.39;99468.78;4484921;31;34005;-52
2021/04/05 03:42:22;;;;;;;;;;;;;;;23.07;37.42;99475.25;4488239;31;34978;-47
2021/04/05 03:44:51;;;;;;;;;;;;;;;23.07;37.37;99475.25;4478963;31;35545;-48
2021/04/05 03:47:21;;;;;;;;;;;;;;;23.07;37.31;99466.25;4479717;31;34219;-49
2021/04/05 03:49:52;;;;;;;;;;;;;;;23.07;37.25;99466.25;4484041;31;34220;-47
2021/04/05 03:52:25;;;;;;;;;;;;;;;23.07;37.30;99471.69;4478248;31;34947;-49
2021/04/05 03:54:53;;;;;;;;;;;;;;;23.06;37.25;99459.16;4479797;31;33597;-46
2021/04/05 03:57:21;;;;;;;;;;;;;;;23.05;37.37;99460.22;4488183;31;33304;-48
2021/04/05 03:59:49;;;;;;;;;;;;;;;23.04;37.51;99461.31;4470043;31;33674;-50
2021/04/05 04:02:17;;;;;;;;;;;;;;;23.05;37.49;99458.34;4477800;31;33028;-49
2021/04/05 04:04:57;;;;;;;;;;;;;;;23.04;37.45;99456.69;4492788;31;34837;-48
2021/04/05 04:07:34;;;;;;;;;;;;;;;23.05;37.43;99443.91;4483787;31;33301;-48
2021/04/05 04:10:02;;;;;;;;;;;;;;;23.03;37.46;99446.84;4478678;31;36761;-49
2021/04/05 04:12:30;;;;;;;;;;;;;;;23.04;37.40;99447.69;4488222;31;33887;-50
2021/04/05 04:14:57;;;;;;;;;;;;;;;23.03;37.44;99441.41;4475146;31;34138;-47
2021/04/05 04:17:24;;;;;;;;;;;;;;;23.03;37.44;99435.97;4478017;31;32130;-49
2021/04/05 04:19:51;;;;;;;;;;;;;;;23.02;37.44;99428.03;4477916;31;32992;-49
2021/04/05 04:22:18;;;;;;;;;;;;;;;23.02;37.49;99434.31;4493120;31;34089;-50
2021/04/05 04:24:45;;;;;;;;;;;;;;;23.02;37.42;99434.31;4473636;31;32717;-47
2021/04/05 04:27:15;;;;;;;;;;;;;;;23.00;37.44;99425.56;4477547;31;32118;-49
2021/04/05 04:29:51;;;;;;;;;;;;;;;23.02;37.47;99428.84;4483068;31;32885;-52
2021/04/05 04:32:18;;;;;;;;;;;;;;;23.02;37.50;99436.19;4484738;31;34146;-50
2021/04/05 04:34:45;;;;;;;;;;;;;;;23.00;37.55;99424.72;4483364;31;33994;-48
2021/04/05 04:37:12;;;;;;;;;;;;;;;23.01;37.58;99426.38;4483674;31;34232;-48
2021/04/05 04:39:39;;;;;;;;;;;;;;;23.00;37.59;99422.00;4492368;31;34871;-50
2021/04/05 04:42:06;;;;;;;;;;;;;;;22.99;37.58;99429.34;4477763;31;34604;-47
2021/04/05 04:44:33;;;;;;;;;;;;;;;23.00;37.62;99425.56;4492417;31;33777;-52
2021/04/05 04:47:00;;;;;;;;;;;;;;;23.00;37.59;99427.44;4487601;31;33349;-49
2021/04/05 04:49:27;;;;;;;;;;;;;;;22.99;37.62;99421.19;4483544;31;34157;-51
2021/04/05 04:51:56;;;;;;;;;;;;;;;23.00;37.56;99431.00;4484706;31;34190;-49
2021/04/05 04:54:23;;;;;;;;;;;;;;;23.00;37.51;99436.44;4483635;31;34114;-51
2021/04/05 04:56:50;;;;;;;;;;;;;;;22.99;37.63;99434.78;4468835;31;31863;-55
2021/04/05 04:59:20;;;;;;;;;;;;;;;22.99;37.63;99431.22;4484591;31;33657;-51
2021/04/05 05:01:47;;;;;;;;;;;;;;;23.00;37.60;99430.16;4468652;31;34185;-48
2021/04/05 05:04:16;;;;;;;;;;;;;;;22.99;37.58;99423.91;4492012;31;34399;-48
2021/04/05 05:06:42;;;;;;;;;;;;;;;22.98;37.51;99414.06;4468773;31;33310;-50
2021/04/05 05:09:09;;;;;;;;;;;;;;;22.99;37.58;99418.47;4492595;31;36392;-52
2021/04/05 05:11:36;;;;;;;;;;;;;;;22.98;37.58;99422.22;4477595;31;33723;-52
2021/04/05 05:14:03;;;;;;;;;;;;;;;22.98;37.58;99415.94;4471283;31;33937;-50
2021/04/05 05:16:30;;;;;;;;;;;;;;;22.99;37.57;99420.31;4468689;31;33280;-48
2021/04/05 05:18:57;;;;;;;;;;;;;;;22.97;37.67;99415.13;4469619;31;33994;-48
2021/04/05 05:21:24;;;;;;;;;;;;;;;22.98;37.68;99424.13;4488691;31;32888;-54
2021/04/05 05:23:53;;;;;;;;;;;;;;;22.97;37.68;99414.31;4485253;31;34296;-50
2021/04/05 05:26:20;;;;;;;;;;;;;;;22.97;37.64;99411.59;4483435;31;33497;-54
2021/04/05 05:28:48;;;;;;;;;;;;;;;22.97;37.64;99417.84;4489134;31;34146;-47
2021/04/05 05:31:15;;;;;;;;;;;;;;;22.97;37.63;99404.25;4470989;31;34659;-47
2021/04/05 05:33:42;;;;;;;;;;;;;;;22.96;37.69;99404.50;4483303;31;34156;-52
2021/04/05 05:36:08;;;;;;;;;;;;;;;22.97;37.63;99406.97;4483388;31;33261;-49
2021/04/05 05:38:36;;;;;;;;;;;;;;;22.97;37.63;99406.13;4484357;31;33997;-49
2021/04/05 05:41:07;;;;;;;;;;;;;;;22.98;37.66;99397.72;4482890;31;33934;-50
2021/04/05 05:43:54;;;;;;;;;;;;;;;22.98;37.66;99402.34;4476766;31;34092;-49
2021/04/05 05:46:23;;;;;;;;;;;;;;;22.96;37.66;99416.19;4483083;31;32043;-51
2021/04/05 05:48:59;;;;;;;;;;;;;;;22.98;37.62;99405.06;4474109;31;34843;-50
2021/04/05 05:51:41;;;;;;;;;;;;;;;22.97;37.61;99411.59;4484315;31;35563;-47
2021/04/05 05:54:12;;;;;;;;;;;;;;;22.97;37.62;99400.69;4483157;31;34740;-49
2021/04/05 05:56:44;;;;;;;;;;;;;;;22.97;37.71;99411.59;4469774;31;34051;-53
2021/04/05 05:59:15;;;;;;;;;;;;;;;22.97;37.63;99403.41;4468357;31;33701;-47
2021/04/05 06:02:04;;;;;;;;;;;;;;;22.97;37.57;99389.81;4468628;31;33860;-49
2021/04/05 06:04:50;;;;;;;;;;;;;;;22.96;37.51;99394.44;4484046;31;35294;-54
2021/04/05 06:07:23;;;;;;;;;;;;;;;22.95;37.60;99391.94;4492038;31;33327;-49
2021/04/05 06:09:59;;;;;;;;;;;;;;;22.94;37.72;99391.09;4469116;31;34737;-49
2021/04/05 06:12:31;;;;;;;;;;;;;;;22.95;37.74;99387.34;4484817;31;34102;-51
2021/04/05 06:15:17;;;;;;;;;;;;;;;22.94;37.80;99377.50;4476995;31;34369;-49
2021/04/05 06:18:03;;;;;;;;;;;;;;;22.95;37.77;99372.91;4491865;31;33106;-49
2021/04/05 06:20:50;;;;;;;;;;;;;;;22.95;37.70;99360.13;4492318;31;33908;-49
2021/04/05 06:23:49;;;;;;;;;;;;;;;22.93;37.71;99362.25;4491463;31;35477;-47
2021/04/05 06:26:21;;;;;;;;;;;;;;;22.94;37.73;99354.91;4444166;31;33882;-50
2021/04/05 06:29:22;;;;;;;;;;;;;;;22.94;37.58;99349.47;4472189;31;33223;-49
2021/04/05 06:31:59;;;;;;;;;;;;;;;22.94;37.67;99347.56;4491817;31;32828;-53
2021/04/05 06:34:35;;;;;;;;;;;;;;;22.92;37.58;99350.53;4488430;31;34223;-48
2021/04/05 06:37:17;;;;;;;;;;;;;;;22.94;37.59;99344.03;4483920;31;36390;-48
2021/04/05 06:39:48;;;;;;;;;;;;;;;22.94;37.68;99344.03;4490371;31;33341;-48
2021/04/05 06:42:35;;;;;;;;;;;;;;;22.95;37.75;99332.94;4473346;31;34899;-48
2021/04/05 06:45:05;;;;;;;;;;;;;;;22.97;37.75;99338.13;4458380;31;33744;-50
2021/04/05 06:47:32;;;;;;;;;;;;;;;22.96;37.74;99333.75;4482566;31;32722;-52
2021/04/05 06:50:14;;;;;;;;;;;;;;;22.96;37.78;99331.03;4482610;31;33213;-52
2021/04/05 06:53:00;;;;;;;;;;;;;;;22.96;37.73;99326.41;4483879;31;34202;-53
2021/04/05 06:55:44;;;;;;;;;;;;;;;22.98;37.82;99320.72;4491430;31;35038;-50
2021/04/05 06:58:20;;;;;;;;;;;;;;;22.96;37.58;99320.16;4484725;31;33731;-53
2021/04/05 07:00:52;;;;;;;;;;;;;;;22.95;37.52;99324.75;4491587;31;33364;-52
2021/04/05 07:03:27;;;;;;;;;;;;;;;22.96;37.47;99322.87;4469255;31;34775;-54
2021/04/05 07:05:57;;;;;;;;;;;;;;;22.96;37.42;99317.41;4491326;31;34032;-50
2021/04/05 07:08:33;;;;;;;;;;;;;;;22.95;37.41;99316.59;4491311;31;34262;-53
2021/04/05 07:11:08;;;;;;;;;;;;;;;22.95;37.42;99324.75;4490611;31;34728;-50
2021/04/05 07:13:48;;;;;;;;;;;;;;;22.94;37.44;99314.09;4482135;31;34082;-48
2021/04/05 07:16:18;;;;;;;;;;;;;;;22.94;37.35;99314.91;4474284;31;34101;-48
2021/04/05 07:18:51;;;;;;;;;;;;;;;22.93;37.37;99313.25;4490757;31;34009;-50
2021/04/05 07:21:37;;;;;;;;;;;;;;;22.94;37.36;99309.47;4460022;31;33250;-55
2021/04/05 07:24:10;;;;;;;;;;;;;;;22.90;36.73;99300.97;4476593;31;34154;-52
2021/04/05 07:26:37;;;;;;;;;;;;;;;22.88;36.25;99294.91;4499536;31;34181;-56
2021/04/05 07:29:22;;;;;;;;;;;;;;;22.87;36.18;99298.69;4486077;31;34016;-52
2021/04/05 07:31:51;;;;;;;;;;;;;;;22.86;36.08;99288.88;4483690;32;33495;-52
2021/04/05 07:34:37;;;;;;;;;;;;;;;22.84;35.49;99287.44;4469445;32;34872;-51
2021/04/05 07:37:04;;;;;;;;;;;;;;;22.82;35.54;99290.41;4483596;32;33785;-53
2021/04/05 07:39:37;;;;;;;;;;;;;;;22.78;35.29;99286.50;4483695;32;34705;-53
2021/04/05 07:42:07;;;;;;;;;;;;;;;22.79;35.32;99287.31;4483400;32;32884;-54
2021/04/05 07:44:46;;;;;;;;;;;;;;;22.77;35.38;99273.97;4483423;32;34152;-53
2021/04/05 07:47:13;;;;;;;;;;;;;;;22.77;35.17;99279.41;4483387;32;34284;-55
2021/04/05 07:49:46;;;;;;;;;;;;;;;22.74;34.97;99279.03;4483730;32;34437;-56
2021/04/05 07:52:32;;;;;;;;;;;;;;;22.72;34.85;99279.28;4482072;32;33886;-52
2021/04/05 07:55:00;;;;;;;;;;;;;;;22.71;34.82;99279.50;4483266;32;34895;-51
2021/04/05 07:57:40;;;;;;;;;;;;;;;22.70;34.74;99267.78;4482058;32;34070;-54
2021/04/05 08:00:08;;;;;;;;;;;;;;;22.72;34.36;99259.41;4481919;32;34056;-52
2021/04/05 08:02:37;;;;;;;;;;;;;;;22.72;34.21;99268.41;4482043;32;33513;-53
2021/04/05 08:05:16;;;;;;;;;;;;;;;22.68;34.26;99264.50;4483421;32;34768;-52
2021/04/05 08:07:43;;;;;;;;;;;;;;;22.66;34.09;99264.72;4484286;32;34167;-56
2021/04/05 08:10:13;;;;;;;;;;;;;;;22.60;34.27;99265.66;4485657;32;34845;-53
2021/04/05 08:12:49;;;;;;;;;;;;;;;22.61;34.14;99263.75;4484340;32;33302;-56
2021/04/05 08:15:16;;;;;;;;;;;;;;;22.56;33.86;99259.03;4485876;32;34881;-53
2021/04/05 08:17:58;;;;;;;;;;;;;;;22.59;33.79;99264.00;4485396;32;33672;-57
2021/04/05 08:20:27;;;;;;;;;;;;;;;22.60;33.52;99262.94;4485706;32;33778;-52
2021/04/05 08:22:59;;;;;;;;;;;;;;;22.61;33.23;99263.75;4471509;32;33224;-57
2021/04/05 08:25:39;;;;;;;;;;;;;;;22.61;33.25;99250.97;4485390;32;35533;-56
2021/04/05 08:28:09;;;;;;;;;;;;;;;22.64;33.21;99257.84;4471066;32;34103;-51
2021/04/05 08:30:59;;;;;;;;;;;;;;;22.63;33.37;99237.19;4473513;31;34487;-49
2021/04/05 08:33:38;;;;;;;;;;;;;;;22.65;33.12;99241.31;4484877;32;33337;-50
2021/04/05 08:36:15;;;;;;;;;;;;;;;22.67;32.95;99241.91;4485163;31;34108;-55
2021/04/05 08:38:42;;;;;;;;;;;;;;;22.68;32.93;99242.72;4484270;32;34904;-53
2021/04/05 08:41:18;;;;;;;;;;;;;;;22.70;33.04;99242.50;4484936;32;33686;-54
2021/04/05 08:43:54;;;;;;;;;;;;;;;22.71;33.18;99233.25;4470817;32;32934;-53
2021/04/05 08:46:25;;;;;;;;;;;;;;;22.72;33.30;99230.31;4471005;32;34915;-57
2021/04/05 08:48:52;;;;;;;;;;;;;;;22.73;33.47;99220.28;4470853;32;34095;-55
2021/04/05 08:51:35;;;;;;;;;;;;;;;22.73;33.61;99229.25;4484866;32;34970;-54
2021/04/05 08:54:03;;;;;;;;;;;;;;;22.76;33.62;99225.25;4485284;32;33565;-56
2021/04/05 08:56:31;;;;;;;;;;;;;;;22.77;34.01;99213.31;4485396;32;33674;-52
2021/04/05 08:59:02;;;;;;;;;;;;;;;22.79;34.20;99216.59;4471028;32;34049;-56
2021/04/05 09:01:33;;;;;;;;;;;;;;;22.79;34.19;99205.72;4485309;32;34065;-55
2021/04/05 09:04:00;;;;;;;;;;;;;;;22.80;34.29;99199.22;4470053;32;33378;-53
2021/04/05 09:06:33;;;;;;;;;;;;;;;22.80;34.35;99201.94;4485214;32;34191;-51
2021/04/05 09:09:00;;;;;;;;;;;;;;;22.79;34.32;99192.13;4471099;32;34157;-52
2021/04/05 09:11:28;;;;;;;;;;;;;;;22.79;34.29;99186.69;4470837;32;34298;-52
2021/04/05 09:13:58;;;;;;;;;;;;;;;22.77;34.48;99177.94;4489888;31;33973;-52
2021/04/05 09:16:34;;;;;;;;;;;;;;;22.78;34.48;99180.41;4484122;32;34062;-51
2021/04/05 09:19:20;;;;;;;;;;;;;;;22.78;34.23;99180.41;4493199;31;34014;-51
2021/04/05 09:22:05;;;;;;;;;;;;;;;22.77;34.30;99181.50;4494574;31;34774;-53
2021/04/05 09:24:55;;;;;;;;;;;;;;;22.79;34.30;99173.09;4490617;31;33335;-54
2021/04/05 09:27:41;;;;;;;;;;;;;;;22.79;34.35;99179.34;4470388;32;34127;-53
2021/04/05 09:33:10;;;;;;;;;;;;;;;22.77;34.77;99151.56;4286458;27;19986;-58
2021/04/05 09:36:01;;;;;;;;;;;;;;;22.81;34.80;99158.19;4386974;32;31835;-53
2021/04/05 09:38:31;;;;;;;;;;;;;;;22.79;34.76;99154.03;4374954;32;35423;-56
2021/04/05 09:41:24;;;;;;;;;;;;;;;22.81;34.82;99141.06;4387330;32;34190;-54
2021/04/05 09:44:09;;;;;;;;;;;;;;;22.82;34.78;99137.25;4371996;32;34332;-57
2021/04/05 09:46:55;;;;;;;;;;;;;;;22.83;34.72;99128.03;4387094;32;33864;-52
2021/04/05 09:49:41;;;;;;;;;;;;;;;22.81;34.77;99131.00;4383735;32;34181;-55
2021/04/05 09:52:09;;;;;;;;;;;;;;;22.82;34.68;99129.91;4388244;32;34259;-57
2021/04/05 09:54:36;;;;;;;;;;;;;;;22.82;34.64;99118.22;4392008;32;34834;-58
2021/04/05 09:57:04;;;;;;;;;;;;;;;22.82;34.56;99110.06;4392334;32;33296;-56
2021/04/05 09:59:39;;;;;;;;;;;;;;;22.82;34.67;99113.59;4391847;32;33625;-54
2021/04/05 10:02:07;;;;;;;;;;;;;;;22.85;34.82;99104.16;4373190;32;34186;-57
2021/04/05 10:04:34;;;;;;;;;;;;;;;22.86;34.95;99103.91;4363338;32;34097;-56
2021/04/05 10:07:02;;;;;;;;;;;;;;;22.87;34.98;99085.69;4380540;32;33102;-57
2021/04/05 10:09:29;;;;;;;;;;;;;;;22.87;34.84;99078.34;4378123;32;34718;-50
2021/04/05 10:11:56;;;;;;;;;;;;;;;22.87;34.96;99077.53;4375454;32;34094;-54
2021/04/05 10:14:25;;;;;;;;;;;;;;;22.88;34.94;99084.63;4378668;32;34122;-56
2021/04/05 10:16:53;;;;;;;;;;;;;;;22.87;34.98;99078.34;4378204;32;33974;-53
2021/04/05 10:19:24;;;;;;;;;;;;;;;22.87;35.00;99072.09;4392099;32;33772;-55
2021/04/05 10:21:52;;;;;;;;;;;;;;;22.87;35.04;99069.38;4388331;32;34022;-55
2021/04/05 10:24:22;;;;;;;;;;;;;;;22.86;35.06;99073.16;4377098;32;34261;-55
2021/04/05 10:26:49;;;;;;;;;;;;;;;22.86;35.07;99067.72;4380674;32;33540;-52
2021/04/05 10:29:24;;;;;;;;;;;;;;;22.84;35.10;99050.78;4392020;32;35137;-51
2021/04/05 10:31:51;;;;;;;;;;;;;;;22.84;35.12;99048.91;4374043;32;34151;-54
2021/04/05 10:34:20;;;;;;;;;;;;;;;22.83;35.13;99040.97;4375665;32;32624;-52
2021/04/05 10:36:48;;;;;;;;;;;;;;;22.82;35.14;99042.88;4378241;32;33457;-50
2021/04/05 10:39:15;;;;;;;;;;;;;;;22.83;35.19;99038.28;4377351;32;34221;-49
2021/04/05 10:41:47;;;;;;;;;;;;;;;22.82;35.22;99047.50;4389208;32;34908;-52
2021/04/05 10:44:14;;;;;;;;;;;;;;;22.82;35.20;99039.34;4377620;32;34771;-53
2021/04/05 10:46:42;;;;;;;;;;;;;;;22.82;35.21;99036.62;4387408;32;33894;-52
2021/04/05 10:49:09;;;;;;;;;;;;;;;22.81;35.23;99032.25;4361641;32;33621;-54
2021/04/05 10:51:46;;;;;;;;;;;;;;;22.79;35.24;99016.16;4376107;32;34686;-55
2021/04/05 10:54:20;;;;;;;;;;;;;;;22.80;35.26;99011.53;4390301;32;34179;-54
2021/04/05 10:56:50;;;;;;;;;;;;;;;22.80;35.27;99008.81;4378259;32;33553;-56
2021/04/05 10:59:30;;;;;;;;;;;;;;;22.79;35.24;98988.13;4377915;32;34771;-51
2021/04/05 11:01:58;;;;;;;;;;;;;;;22.77;35.29;98991.09;4388442;32;34193;-53
2021/04/05 11:04:27;;;;;;;;;;;;;;;22.78;35.28;98987.31;4351233;32;35072;-51
2021/04/05 11:06:54;;;;;;;;;;;;;;;22.77;35.27;98985.66;4383444;32;33245;-52
2021/04/05 11:09:21;;;;;;;;;;;;;;;22.77;35.29;98982.13;4389581;32;32692;-57
2021/04/05 11:11:52;;;;;;;;;;;;;;;22.77;35.28;98982.94;4377700;32;33946;-53
2021/04/05 11:14:19;;;;;;;;;;;;;;;22.77;35.31;98974.78;4388542;32;33705;-50
2021/04/05 11:16:50;;;;;;;;;;;;;;;22.76;35.31;98965.00;4378083;32;34193;-54
2021/04/05 11:19:23;;;;;;;;;;;;;;;22.77;35.32;98965.81;4388595;32;34854;-51
2021/04/05 11:21:51;;;;;;;;;;;;;;;22.76;35.32;98956.00;4369923;32;34108;-54
2021/04/05 11:24:26;;;;;;;;;;;;;;;22.76;35.37;98950.56;4389869;32;34963;-54
2021/04/05 11:26:57;;;;;;;;;;;;;;;22.75;35.39;98936.13;4390900;32;33572;-54
2021/04/05 11:29:25;;;;;;;;;;;;;;;22.76;35.32;98920.66;4389152;32;34007;-53
2021/04/05 11:31:52;;;;;;;;;;;;;;;22.75;35.36;98914.34;4376328;32;34875;-55
2021/04/05 11:34:26;;;;;;;;;;;;;;;22.76;35.36;98909.78;4375716;32;33973;-52
2021/04/05 11:36:59;;;;;;;;;;;;;;;22.74;35.34;98899.12;4376427;32;34310;-56
2021/04/05 11:39:27;;;;;;;;;;;;;;;22.74;35.38;98887.41;4370654;32;34183;-57
2021/04/05 11:41:55;;;;;;;;;;;;;;;22.73;35.39;98886.59;4373312;32;34145;-51
2021/04/05 11:44:22;;;;;;;;;;;;;;;22.73;35.33;98869.47;4386792;32;34075;-48
2021/04/05 11:46:49;;;;;;;;;;;;;;;22.74;35.40;98879.25;4393071;32;33203;-53
2021/04/05 11:49:17;;;;;;;;;;;;;;;22.73;35.40;98881.16;4368692;32;34366;-51
2021/04/05 11:51:44;;;;;;;;;;;;;;;22.73;35.41;98877.62;4392377;32;33747;-54
2021/04/05 11:54:43;;;;;;;;;;;;;;;22.72;35.44;98867.81;4393230;32;34243;-53
2021/04/05 11:57:11;;;;;;;;;;;;;;;22.72;35.41;98870.53;4367375;32;33194;-53
2021/04/05 11:59:42;;;;;;;;;;;;;;;22.72;35.43;98873.25;4389510;32;34074;-55
2021/04/05 12:02:42;;;;;;;;;;;;;;;22.72;35.47;98865.09;4379742;32;35173;-55
2021/04/05 12:05:10;;;;;;;;;;;;;;;22.71;35.46;98868.84;4371391;32;34130;-54
2021/04/05 12:07:55;;;;;;;;;;;;;;;22.71;35.50;98858.84;4379106;32;33243;-57
2021/04/05 12:10:24;;;;;;;;;;;;;;;22.71;35.52;98852.53;4382992;32;34061;-50
2021/04/05 12:12:52;;;;;;;;;;;;;;;22.71;35.50;98838.94;4378572;32;34108;-58
2021/04/05 12:15:20;;;;;;;;;;;;;;;22.71;35.52;98836.22;4377757;32;34213;-56
2021/04/05 12:17:48;;;;;;;;;;;;;;;22.70;35.57;98819.09;4391454;32;33583;-57
2021/04/05 12:20:15;;;;;;;;;;;;;;;22.71;35.58;98811.75;4392864;32;34050;-55
2021/04/05 12:22:42;;;;;;;;;;;;;;;22.70;35.56;98800.06;4392282;32;33959;-57
2021/04/05 12:25:09;;;;;;;;;;;;;;;22.70;35.59;98808.22;4376309;32;34060;-58
2021/04/05 12:27:39;;;;;;;;;;;;;;;22.70;35.61;98794.63;4392206;32;33320;-56
2021/04/05 12:30:07;;;;;;;;;;;;;;;22.70;35.58;98789.19;4378911;32;34071;-58
2021/04/05 12:32:36;;;;;;;;;;;;;;;22.70;35.61;98785.62;4381447;32;35000;-54
2021/04/05 12:35:03;;;;;;;;;;;;;;;22.69;35.65;98776.66;4376417;32;34818;-56
2021/04/05 12:37:30;;;;;;;;;;;;;;;22.69;35.70;98787.53;4390251;32;33306;-56
2021/04/05 12:40:00;;;;;;;;;;;;;;;22.70;35.69;98780.19;4376049;32;34643;-49
2021/04/05 12:42:34;;;;;;;;;;;;;;;22.69;35.68;98768.50;4393563;32;34931;-47
2021/04/05 12:45:02;;;;;;;;;;;;;;;22.69;35.75;98757.63;4392068;32;34169;-49
2021/04/05 12:47:34;;;;;;;;;;;;;;;22.67;35.75;98760.59;4392474;32;33245;-49
2021/04/05 12:50:03;;;;;;;;;;;;;;;22.69;35.80;98754.09;4380812;32;34803;-53
2021/04/05 12:52:32;;;;;;;;;;;;;;;22.68;35.79;98739.66;4384966;32;34562;-49
2021/04/05 12:55:00;;;;;;;;;;;;;;;22.69;35.80;98740.50;4382797;32;34168;-57
2021/04/05 12:57:27;;;;;;;;;;;;;;;22.68;35.79;98734.22;4386632;32;33835;-52
2021/04/05 12:59:55;;;;;;;;;;;;;;;22.67;35.81;98738.84;4378482;32;34484;-53
2021/04/05 13:02:22;;;;;;;;;;;;;;;22.69;35.81;98740.50;4392343;32;34190;-57
2021/04/05 13:04:49;;;;;;;;;;;;;;;22.67;35.81;98730.69;4368172;32;34706;-54
2021/04/05 13:07:17;;;;;;;;;;;;;;;22.66;35.76;98723.62;4382942;32;33136;-53
2021/04/05 13:09:48;;;;;;;;;;;;;;;22.68;35.60;98731.50;4363837;32;34929;-52
2021/04/05 13:12:16;;;;;;;;;;;;;;;22.69;35.42;98737.78;4373672;32;34174;-50